Time;durP1;ratioP1;P1;durP2;ratioP2;P2;SDS_P1;SDS_P2;PMS_P1;PMS_P2;Temp;Humidity;BMP_temperature;BMP_pressure;BME280_temperature;BME280_humidity;BME280_pressure;Samples;Min_cycle;Max_cycle;Signal;HPM_P1;HPM_P2
2023/04/29 00:00:14;;;;;;;0.50;0.50;;;;;;;12.98;97.65;96573.03;29395;244;63005;-54
2023/04/29 00:00:45;;;;;;;0.50;0.50;;;;;;;12.98;97.66;96572.25;29395;216;63009;-54
2023/04/29 00:01:17;;;;;;;0.50;0.50;;;;;;;12.98;97.94;96573.03;29395;235;63005;-54
2023/04/29 00:01:48;;;;;;;0.50;0.50;;;;;;;12.98;97.57;96572.25;29395;248;63009;-54
2023/04/29 00:02:23;;;;;;;0.50;0.50;;;;;;;12.97;97.89;96568.72;29394;216;64009;-55
2023/04/29 00:02:54;;;;;;;0.50;0.50;;;;;;;12.94;97.92;96576.69;29395;202;63017;-54
2023/04/29 00:03:27;;;;;;;0.50;0.50;;;;;;;12.92;98.12;96568.03;29395;224;63014;-54
2023/04/29 00:03:59;;;;;;;0.40;0.40;;;;;;;12.87;98.17;96560.00;29395;218;63024;-55
2023/04/29 00:04:30;;;;;;;0.40;0.40;;;;;;;12.85;98.50;96573.13;29395;196;63004;-54
2023/04/29 00:05:05;;;;;;;0.80;0.80;;;;;;;12.87;98.42;96570.91;29395;202;63009;-54
2023/04/29 00:05:36;;;;;;;0.40;0.40;;;;;;;12.90;98.28;96564.84;29395;218;63015;-55
2023/04/29 00:06:07;;;;;;;0.50;0.50;;;;;;;12.92;98.24;96571.56;29395;234;63008;-55
2023/04/29 00:06:39;;;;;;;0.50;0.50;;;;;;;12.90;98.42;96570.28;29395;260;63013;-54
2023/04/29 00:07:14;;;;;;;0.50;0.50;;;;;;;12.89;98.20;96563.22;29395;205;63009;-55
2023/04/29 00:07:45;;;;;;;0.40;0.40;;;;;;;12.89;98.52;96569.47;29394;216;64009;-54
2023/04/29 00:08:16;;;;;;;0.40;0.40;;;;;;;12.93;98.32;96564.22;29395;209;63009;-55
2023/04/29 00:08:48;;;;;;;0.50;0.50;;;;;;;12.93;98.31;96566.94;29395;260;63005;-54
2023/04/29 00:09:20;;;;;;;0.50;0.50;;;;;;;12.94;97.82;96565.81;29395;236;63009;-55
2023/04/29 00:09:52;;;;;;;0.40;0.40;;;;;;;12.91;98.18;96566.44;29395;206;63005;-55
2023/04/29 00:10:23;;;;;;;0.50;0.50;;;;;;;12.88;97.97;96556.19;29395;202;63009;-55
2023/04/29 00:10:54;;;;;;;0.50;0.50;;;;;;;12.86;98.14;96558.41;29395;202;63005;-55
2023/04/29 00:11:25;;;;;;;0.50;0.50;;;;;;;12.89;98.14;96568.69;29394;219;64013;-54
2023/04/29 00:11:56;;;;;;;0.40;0.40;;;;;;;12.89;98.47;96563.22;29395;202;63004;-54
2023/04/29 00:12:29;;;;;;;0.50;0.50;;;;;;;12.89;98.39;96568.69;29395;199;63009;-55
2023/04/29 00:13:00;;;;;;;0.40;0.40;;;;;;;12.87;98.46;96565.47;29395;210;63004;-55
2023/04/29 00:13:32;;;;;;;0.40;0.40;;;;;;;12.85;98.20;96564.97;29395;239;63015;-55
2023/04/29 00:14:03;;;;;;;0.50;0.50;;;;;;;12.87;98.34;96565.47;29395;232;63004;-55
2023/04/29 00:14:35;;;;;;;0.50;0.50;;;;;;;12.89;98.52;96565.94;29395;202;63009;-57
2023/04/29 00:15:08;;;;;;;0.60;0.60;;;;;;;12.94;98.10;96571.25;29395;215;63005;-53
2023/04/29 00:15:40;;;;;;;0.50;0.50;;;;;;;12.93;97.66;96566.94;29395;221;63009;-56
2023/04/29 00:16:12;;;;;;;0.90;0.90;;;;;;;12.93;98.05;96564.22;29395;217;63005;-55
2023/04/29 00:16:43;;;;;;;0.40;0.40;;;;;;;12.92;98.04;96557.16;29394;206;64013;-58
2023/04/29 00:17:18;;;;;;;0.50;0.50;;;;;;;12.89;98.12;96568.69;29394;206;64005;-55
2023/04/29 00:17:51;;;;;;;0.50;0.50;;;;;;;12.89;98.10;96560.50;29395;211;63009;-55
2023/04/29 00:18:22;;;;;;;0.40;0.40;;;;;;;12.87;98.12;96566.25;29395;202;63005;-55
2023/04/29 00:18:54;;;;;;;0.45;0.45;;;;;;;12.84;98.08;96564.16;29395;219;63009;-54
2023/04/29 00:19:25;;;;;;;0.50;0.50;;;;;;;12.84;98.62;96560.66;29395;202;63004;-55
2023/04/29 00:19:56;;;;;;;0.40;0.40;;;;;;;12.81;98.20;96570.28;29395;215;63009;-55
2023/04/29 00:20:28;;;;;;;0.60;0.60;;;;;;;12.81;98.90;96569.47;29395;196;63004;-54
2023/04/29 00:20:59;;;;;;;0.40;0.40;;;;;;;12.77;98.84;96572.00;29394;202;64013;-54
2023/04/29 00:21:32;;;;;;;0.40;0.40;;;;;;;12.76;99.02;96564.97;29395;214;63004;-54
2023/04/29 00:22:03;;;;;;;0.50;0.50;;;;;;;12.74;98.83;96568.00;29395;220;63009;-54
2023/04/29 00:22:34;;;;;;;0.50;0.50;;;;;;;12.71;99.31;96563.19;29395;272;63005;-55
2023/04/29 00:23:06;;;;;;;0.40;0.40;;;;;;;12.70;99.16;96566.22;29395;220;63009;-54
2023/04/29 00:23:40;;;;;;;0.40;0.40;;;;;;;12.70;99.32;96561.56;29395;202;63005;-54
2023/04/29 00:24:12;;;;;;;0.40;0.40;;;;;;;12.72;99.38;96564.78;29395;198;63009;-55
2023/04/29 00:24:43;;;;;;;0.40;0.40;;;;;;;12.71;99.11;96562.38;29395;204;63005;-55
2023/04/29 00:25:16;;;;;;;0.40;0.40;;;;;;;12.68;99.01;96563.81;29395;203;63009;-59
2023/04/29 00:25:47;;;;;;;0.50;0.50;;;;;;;12.65;99.16;96567.16;29395;217;63005;-55
2023/04/29 00:26:18;;;;;;;0.40;0.40;;;;;;;12.63;99.55;96561.22;29394;223;64013;-55
2023/04/29 00:26:50;;;;;;;0.40;0.40;;;;;;;12.65;100.00;96563.63;29395;256;63004;-55
2023/04/29 00:27:21;;;;;;;0.50;0.50;;;;;;;12.68;99.50;96558.34;29395;206;63009;-55
2023/04/29 00:27:53;;;;;;;0.40;0.40;;;;;;;12.70;99.52;96561.56;29395;198;63004;-54
2023/04/29 00:28:24;;;;;;;0.40;0.40;;;;;;;12.71;99.27;96563.19;29395;232;63009;-54
2023/04/29 00:28:55;;;;;;;0.43;0.43;;;;;;;12.75;99.35;96558.72;29395;201;63004;-54
2023/04/29 00:29:27;;;;;;;0.40;0.40;;;;;;;12.77;99.02;96560.31;29395;196;63005;-55
2023/04/29 00:29:58;;;;;;;0.50;0.50;;;;;;;12.77;99.20;96560.31;29395;279;63005;-55
2023/04/29 00:30:32;;;;;;;0.40;0.40;;;;;;;12.74;98.89;96562.56;29395;254;63009;-55
2023/04/29 00:31:03;;;;;;;0.50;0.50;;;;;;;12.71;99.13;96565.91;29395;241;63005;-55
2023/04/29 00:31:36;;;;;;;0.40;0.40;;;;;;;12.73;99.18;96569.13;29394;218;64013;-54
2023/04/29 00:32:07;;;;;;;0.50;0.50;;;;;;;12.78;99.27;96570.09;29395;226;63011;-55
2023/04/29 00:32:38;;;;;;;0.40;0.40;;;;;;;12.78;98.58;96561.94;29395;396;63005;-54
2023/04/29 00:33:10;;;;;;;0.50;0.50;;;;;;;12.75;98.58;96569.59;29395;196;63009;-53
2023/04/29 00:33:41;;;;;;;0.50;0.50;;;;;;;12.80;98.73;96565.13;29395;229;63009;-54
2023/04/29 00:34:12;;;;;;;0.50;0.50;;;;;;;12.81;98.49;96555.84;29395;224;63011;-54
2023/04/29 00:34:44;;;;;;;0.50;0.50;;;;;;;12.80;98.45;96559.69;29395;257;63009;-55
2023/04/29 00:35:15;;;;;;;0.50;0.50;;;;;;;12.77;98.40;96563.84;29395;205;63004;-55
2023/04/29 00:35:47;;;;;;;0.50;0.50;;;;;;;12.73;98.49;96560.94;29395;242;63008;-55
2023/04/29 00:36:20;;;;;;;0.47;0.47;;;;;;;12.69;98.87;96559.97;29394;270;64008;-55
2023/04/29 00:36:51;;;;;;;0.40;0.40;;;;;;;12.69;99.09;96559.97;29395;217;63008;-57
2023/04/29 00:37:22;;;;;;;0.50;0.50;;;;;;;12.70;99.14;96567.00;29395;222;63005;-55
2023/04/29 00:37:53;;;;;;;0.40;0.40;;;;;;;12.73;99.03;96555.50;29395;212;63013;-55
2023/04/29 00:38:25;;;;;;;0.40;0.40;;;;;;;12.74;98.73;96562.56;29395;243;63005;-55
2023/04/29 00:38:57;;;;;;;0.50;0.50;;;;;;;12.73;98.80;96558.22;29395;202;63009;-55
2023/04/29 00:39:28;;;;;;;0.43;0.43;;;;;;;12.70;99.07;96567.00;29395;284;63005;-55
2023/04/29 00:40:00;;;;;;;0.40;0.40;;;;;;;12.68;99.03;96563.81;29395;233;63009;-54
2023/04/29 00:40:31;;;;;;;0.40;0.40;;;;;;;12.70;99.00;96561.56;29395;203;63009;-54
2023/04/29 00:41:04;;;;;;;0.40;0.40;;;;;;;12.70;98.80;96561.56;29395;196;63009;-55
2023/04/29 00:41:35;;;;;;;0.40;0.40;;;;;;;12.69;99.04;96565.41;29394;221;64009;-55
2023/04/29 00:42:08;;;;;;;0.40;0.40;;;;;;;12.77;98.61;96560.31;29394;266;64013;-57
2023/04/29 00:42:40;;;;;;;0.50;0.50;;;;;;;12.82;98.34;96562.91;29394;239;64009;-54
2023/04/29 00:43:12;;;;;;;0.50;0.50;;;;;;;12.85;97.81;96567.69;29395;243;63008;-55
2023/04/29 00:43:43;;;;;;;0.40;0.40;;;;;;;12.83;97.92;96553.59;29395;272;63010;-55
2023/04/29 00:44:15;;;;;;;0.40;0.40;;;;;;;12.80;97.70;96559.69;29395;200;63009;-55
2023/04/29 00:44:47;;;;;;;0.40;0.40;;;;;;;12.74;98.01;96562.56;29395;218;63011;-55
2023/04/29 00:45:19;;;;;;;0.60;0.60;;;;;;;12.73;98.31;96560.94;29395;205;63009;-55
2023/04/29 00:45:51;;;;;;;0.40;0.40;;;;;;;12.72;98.69;96559.34;29395;203;63005;-55
2023/04/29 00:46:26;;;;;;;0.47;0.47;;;;;;;12.71;98.78;96563.19;29395;293;63009;-55
2023/04/29 00:46:58;;;;;;;0.50;0.50;;;;;;;12.69;98.83;96561.88;29394;239;64009;-55
2023/04/29 00:47:29;;;;;;;0.40;0.40;;;;;;;12.67;98.70;96561.41;29395;296;63009;-54
2023/04/29 00:48:00;;;;;;;0.52;0.52;;;;;;;12.65;98.78;96558.19;29395;262;63004;-55
2023/04/29 00:48:32;;;;;;;0.40;0.40;;;;;;;12.64;99.25;96562.81;29395;245;63009;-54
2023/04/29 00:49:04;;;;;;;0.40;0.40;;;;;;;12.62;99.00;96565.06;29395;213;63004;-54
2023/04/29 00:49:37;;;;;;;0.50;0.50;;;;;;;12.70;98.98;96566.22;29395;216;63009;-54
2023/04/29 00:50:09;;;;;;;0.50;0.50;;;;;;;12.71;98.73;96565.09;29395;242;63004;-54
2023/04/29 00:50:41;;;;;;;0.50;0.50;;;;;;;12.75;98.45;96569.59;29395;230;63013;-52
2023/04/29 00:51:13;;;;;;;0.40;0.40;;;;;;;12.70;98.51;96561.56;29394;221;64009;-54
2023/04/29 00:51:44;;;;;;;0.50;0.50;;;;;;;12.68;98.66;96569.25;29395;202;63009;-57
2023/04/29 00:52:16;;;;;;;0.45;0.45;;;;;;;12.67;98.58;96567.62;29395;260;63005;-57
2023/04/29 00:52:48;;;;;;;0.40;0.40;;;;;;;12.65;98.81;96575.31;29395;230;63009;-56
2023/04/29 00:53:22;;;;;;;0.40;0.40;;;;;;;12.62;98.91;96565.06;29395;300;63012;-55
2023/04/29 00:53:53;;;;;;;0.40;0.40;;;;;;;12.66;98.97;96571.47;29395;243;63009;-55
2023/04/29 00:54:25;;;;;;;0.40;0.40;;;;;;;12.66;99.02;96571.47;29395;204;63005;-55
2023/04/29 00:54:56;;;;;;;0.40;0.40;;;;;;;12.64;99.14;96579.16;29395;220;63009;-57
2023/04/29 00:55:28;;;;;;;0.50;0.50;;;;;;;12.60;98.99;96570.00;29395;196;63018;-55
2023/04/29 00:56:02;;;;;;;0.50;0.50;;;;;;;12.55;99.29;96575.59;29394;206;64013;-55
2023/04/29 00:56:35;;;;;;;0.47;0.47;;;;;;;12.51;99.42;96574.59;29395;203;63012;-55
2023/04/29 00:57:06;;;;;;;0.50;0.50;;;;;;;12.48;99.71;96579.84;29395;218;63009;-55
2023/04/29 00:57:38;;;;;;;0.40;0.40;;;;;;;12.45;99.89;96581.31;29395;222;63010;-55
2023/04/29 00:58:10;;;;;;;0.40;0.40;;;;;;;12.43;100.00;96578.09;29395;241;63008;-55
2023/04/29 00:58:48;;;;;;;0.40;0.40;;;;;;;12.49;100.00;96570.59;29395;213;63017;-54
2023/04/29 00:59:22;;;;;;;0.40;0.40;;;;;;;12.47;100.00;96576.38;29395;250;63026;-55
2023/04/29 00:59:56;;;;;;;0.50;0.50;;;;;;;12.44;100.00;96579.72;29395;216;63005;-54
2023/04/29 01:00:28;;;;;;;0.43;0.43;;;;;;;12.46;100.00;96582.91;29395;226;63009;-56
2023/04/29 01:01:00;;;;;;;0.40;0.40;;;;;;;12.46;100.00;96576.69;29394;226;64009;-54
2023/04/29 01:01:32;;;;;;;0.40;0.40;;;;;;;12.50;99.92;96578.44;29394;245;64013;-54
2023/04/29 01:02:04;;;;;;;0.40;0.40;;;;;;;12.48;99.89;96579.84;29395;362;63005;-54
2023/04/29 01:02:36;;;;;;;0.47;0.47;;;;;;;12.46;100.00;96576.69;29395;219;63009;-55
2023/04/29 01:03:08;;;;;;;0.40;0.40;;;;;;;12.47;100.00;96584.53;29395;242;63004;-54
2023/04/29 01:03:40;;;;;;;0.40;0.40;;;;;;;12.51;99.84;96573.78;29395;205;63009;-54
2023/04/29 01:04:11;;;;;;;0.40;0.40;;;;;;;12.55;99.88;96572.84;29395;211;63015;-53
2023/04/29 01:04:43;;;;;;;0.50;0.50;;;;;;;12.56;99.57;96581.81;29395;224;63009;-55
2023/04/29 01:05:14;;;;;;;0.40;0.40;;;;;;;12.52;99.29;96576.19;29395;224;63004;-55
2023/04/29 01:05:54;;;;;;;0.50;0.50;;;;;;;12.51;99.50;96573.78;29394;271;64013;-54
2023/04/29 01:07:17;;;;;;;0.50;0.50;;;;;;;12.43;99.71;96577.28;29395;229;63005;-55
2023/04/29 01:08:10;;;;;;;0.40;0.40;;;;;;;12.37;100.00;96579.34;29417;231;63009;-54
2023/04/29 01:09:16;;;;;;;0.40;0.40;;;;;;;12.42;100.00;96579.22;29395;199;63005;-54
2023/04/29 01:10:21;;;;;;;0.40;0.40;;;;;;;12.38;100.00;96583.66;29395;242;63009;-55
2023/04/29 01:11:08;;;;;;;0.50;0.50;;;;;;;12.39;100.00;96579.84;29394;242;64009;-54
2023/04/29 01:12:02;;;;;;;0.40;0.40;;;;;;;12.37;99.99;96580.16;29395;218;63009;-55
2023/04/29 01:13:04;;;;;;;0.40;0.40;;;;;;;12.38;100.00;96581.75;29395;213;63004;-55
2023/04/29 01:13:54;;;;;;;0.50;0.50;;;;;;;12.41;100.00;96580.31;29417;205;63014;-55
2023/04/29 01:14:27;;;;;;;0.50;0.50;;;;;;;12.41;100.00;96580.31;29395;249;63018;-54
2023/04/29 01:15:22;;;;;;;0.47;0.47;;;;;;;12.44;99.87;96578.91;29395;221;63009;-54
2023/04/29 01:16:28;;;;;;;0.50;0.50;;;;;;;12.45;99.35;96575.88;29394;224;64009;-54
2023/04/29 01:17:10;;;;;;;0.50;0.50;;;;;;;12.43;99.41;96580.03;29395;198;63017;-55
2023/04/29 01:18:10;;;;;;;0.50;0.50;;;;;;;12.37;100.00;96574.72;29395;199;63004;-55
2023/04/29 01:18:58;;;;;;;0.50;0.50;;;;;;;12.39;99.60;96574.41;29394;229;64013;-55
2023/04/29 01:19:46;;;;;;;0.50;0.50;;;;;;;12.43;99.74;96577.28;29395;243;63004;-54
2023/04/29 01:20:20;;;;;;;0.50;0.50;;;;;;;12.40;99.83;96578.72;29395;242;63020;-55
2023/04/29 01:20:51;;;;;;;0.50;0.50;;;;;;;12.37;100.00;96582.88;29395;243;63005;-55
2023/04/29 01:21:24;;;;;;;0.50;0.50;;;;;;;12.35;100.00;96576.13;29395;210;63009;-55
2023/04/29 01:21:55;;;;;;;0.50;0.50;;;;;;;12.34;100.00;96579.97;29395;303;63005;-54
2023/04/29 01:22:26;;;;;;;0.50;0.50;;;;;;;12.36;100.00;96583.19;29395;250;63009;-55
2023/04/29 01:22:58;;;;;;;0.50;0.50;;;;;;;12.36;100.00;96577.75;29395;242;63005;-55
2023/04/29 01:23:30;;;;;;;0.50;0.50;;;;;;;12.38;99.83;96578.22;29395;243;63009;-53
2023/04/29 01:24:01;;;;;;;0.50;0.50;;;;;;;12.38;100.00;96586.41;29394;208;64009;-55
2023/04/29 01:24:33;;;;;;;0.45;0.45;;;;;;;12.37;99.71;96582.06;29395;293;63009;-54
2023/04/29 01:25:06;;;;;;;0.40;0.40;;;;;;;12.34;99.90;96575.31;29395;233;63004;-55
2023/04/29 01:25:38;;;;;;;0.40;0.40;;;;;;;12.33;100.00;96581.06;29395;307;63009;-54
2023/04/29 01:26:09;;;;;;;0.50;0.50;;;;;;;12.29;100.00;96582.81;29395;208;63004;-55
2023/04/29 01:26:50;;;;;;;0.50;0.50;;;;;;;12.25;100.00;96573.66;29395;218;63009;-55
2023/04/29 01:27:41;;;;;;;0.50;0.50;;;;;;;12.26;100.00;96578.00;29417;214;63006;-54
2023/04/29 01:28:34;;;;;;;0.50;0.50;;;;;;;12.26;100.00;96584.22;29417;242;63009;-55
2023/04/29 01:29:40;;;;;;;0.45;0.45;;;;;;;12.28;100.00;96583.91;29394;197;64009;-54
2023/04/29 01:30:52;;;;;;;0.50;0.50;;;;;;;12.28;100.00;96581.19;29395;212;63009;-54
2023/04/29 01:31:56;;;;;;;0.50;0.50;;;;;;;12.22;100.00;96582.44;29417;272;63005;-54
2023/04/29 01:32:54;;;;;;;0.50;0.50;;;;;;;12.21;100.00;96580.84;29395;282;63009;-54
2023/04/29 01:34:06;;;;;;;0.50;0.50;;;;;;;12.22;100.00;96585.16;29395;353;63004;-56
2023/04/29 01:34:58;;;;;;;0.50;0.50;;;;;;;12.18;100.00;96582.25;29416;229;64009;-54
2023/04/29 01:36:08;;;;;;;0.50;0.50;;;;;;;12.15;100.00;96582.06;29395;222;63023;-55
2023/04/29 01:37:06;;;;;;;0.50;0.50;;;;;;;12.17;100.00;96585.28;29394;247;64009;-54
2023/04/29 01:37:56;;;;;;;0.50;0.50;;;;;;;12.27;100.00;96585.03;29395;295;63005;-54
2023/04/29 01:38:48;;;;;;;0.50;0.50;;;;;;;12.25;100.00;96581.81;29395;202;63009;-54
2023/04/29 01:39:57;;;;;;;0.50;0.50;;;;;;;12.25;100.00;96581.81;29395;202;63005;-54
2023/04/29 01:40:47;;;;;;;0.50;0.50;;;;;;;12.27;100.00;96585.03;29395;202;63009;-54
2023/04/29 01:41:35;;;;;;;0.40;0.40;;;;;;;12.30;100.00;96584.41;29395;214;63004;-54
2023/04/29 01:42:22;;;;;;;0.40;0.40;;;;;;;12.28;100.00;96582.00;29394;239;64013;-55
2023/04/29 01:43:07;;;;;;;0.50;0.50;;;;;;;12.25;100.00;96584.53;29395;198;63007;-55
2023/04/29 01:43:39;;;;;;;0.50;0.50;;;;;;;12.22;100.00;96582.44;29395;232;63018;-55
2023/04/29 01:44:26;;;;;;;0.50;0.50;;;;;;;12.19;100.00;96588.50;29395;242;63005;-56
2023/04/29 01:45:03;;;;;;;0.50;0.50;;;;;;;12.16;100.00;96578.25;29395;219;63009;-55
2023/04/29 01:45:40;;;;;;;0.50;0.50;;;;;;;12.14;100.00;96585.91;29395;272;63005;-56
2023/04/29 01:46:17;;;;;;;0.40;0.40;;;;;;;12.16;100.00;96583.69;29395;219;63019;-56
2023/04/29 01:46:52;;;;;;;0.50;0.50;;;;;;;12.16;100.00;96579.03;29395;239;63005;-58
2023/04/29 01:47:25;;;;;;;0.50;0.50;;;;;;;12.16;100.00;96584.47;29394;206;64013;-55
2023/04/29 01:47:58;;;;;;;0.40;0.40;;;;;;;12.16;100.00;96579.03;29395;198;63004;-56
2023/04/29 01:48:30;;;;;;;0.40;0.40;;;;;;;12.17;100.00;96580.66;29395;248;63009;-55
2023/04/29 01:49:06;;;;;;;0.50;0.50;;;;;;;12.16;100.00;96584.47;29395;202;63004;-55
2023/04/29 01:49:38;;;;;;;0.40;0.40;;;;;;;12.15;100.00;96577.44;29395;246;63009;-55
2023/04/29 01:50:10;;;;;;;0.50;0.50;;;;;;;12.13;100.00;96574.22;29395;261;63011;-54
2023/04/29 01:50:41;;;;;;;0.50;0.50;;;;;;;12.14;100.00;96585.91;29395;251;63008;-55
2023/04/29 01:51:13;;;;;;;0.50;0.50;;;;;;;12.12;100.00;96577.28;29395;239;63011;-59
2023/04/29 01:51:44;;;;;;;0.50;0.50;;;;;;;12.11;100.00;96581.91;29395;207;63005;-55
2023/04/29 01:52:16;;;;;;;0.50;0.50;;;;;;;12.10;100.00;96576.78;29395;231;63005;-56
2023/04/29 01:52:48;;;;;;;0.50;0.50;;;;;;;12.08;100.00;96577.91;29394;204;64013;-55
2023/04/29 01:53:19;;;;;;;0.40;0.40;;;;;;;12.10;100.00;96574.06;29395;203;63005;-55
2023/04/29 01:53:54;;;;;;;0.50;0.50;;;;;;;12.18;100.00;96571.37;29395;223;63009;-55
2023/04/29 01:54:25;;;;;;;0.50;0.50;;;;;;;12.18;100.00;96578.72;29395;223;63005;-55
2023/04/29 01:54:56;;;;;;;0.40;0.40;;;;;;;12.20;100.00;96580.03;29395;256;63009;-55
2023/04/29 01:55:28;;;;;;;0.40;0.40;;;;;;;12.21;100.00;96575.41;29395;245;63004;-55
2023/04/29 01:56:00;;;;;;;0.40;0.40;;;;;;;12.19;100.00;96572.97;29395;225;63009;-56
2023/04/29 01:56:31;;;;;;;0.40;0.40;;;;;;;12.18;100.00;96570.56;29395;223;63004;-55
2023/04/29 01:57:03;;;;;;;0.40;0.40;;;;;;;12.17;100.00;96569.75;29395;208;63009;-55
2023/04/29 01:57:34;;;;;;;0.50;0.50;;;;;;;12.16;100.00;96573.59;29395;256;63004;-56
2023/04/29 01:58:05;;;;;;;0.50;0.50;;;;;;;12.13;100.00;96568.78;29394;201;64013;-55
2023/04/29 01:58:36;;;;;;;0.50;0.50;;;;;;;12.12;100.00;96577.28;29395;238;63010;-55
2023/04/29 01:59:08;;;;;;;0.50;0.50;;;;;;;12.11;100.00;96573.75;29395;245;63009;-55
2023/04/29 01:59:39;;;;;;;0.50;0.50;;;;;;;12.10;100.00;96572.16;29395;199;63005;-56
2023/04/29 02:00:11;;;;;;;0.40;0.40;;;;;;;12.10;100.00;96576.78;29395;236;63009;-55
2023/04/29 02:00:43;;;;;;;0.40;0.40;;;;;;;12.10;100.00;96568.63;29395;206;63005;-56
2023/04/29 02:01:14;;;;;;;0.50;0.50;;;;;;;12.08;100.00;96574.38;29395;218;63009;-56
2023/04/29 02:01:46;;;;;;;0.40;0.40;;;;;;;12.10;100.00;96569.44;29395;215;63012;-55
2023/04/29 02:02:20;;;;;;;0.40;0.40;;;;;;;12.09;100.00;96567.81;29395;209;63009;-56
2023/04/29 02:02:51;;;;;;;0.40;0.40;;;;;;;12.09;100.00;96578.69;29395;222;63004;-53
2023/04/29 02:03:24;;;;;;;0.40;0.40;;;;;;;12.20;100.00;96573.78;29394;202;64013;-55
2023/04/29 02:03:55;;;;;;;1.25;1.25;;;;;;;12.18;100.00;96570.56;29395;203;63004;-55
2023/04/29 02:04:27;;;;;;;0.40;0.40;;;;;;;12.18;100.00;96565.13;29395;204;63009;-54
2023/04/29 02:04:58;;;;;;;0.50;0.50;;;;;;;12.17;99.88;96568.97;29395;272;63004;-58
2023/04/29 02:05:32;;;;;;;0.40;0.40;;;;;;;12.14;100.00;96569.59;29395;213;63008;-55
2023/04/29 02:06:05;;;;;;;0.40;0.40;;;;;;;12.14;100.00;96569.59;29395;233;63005;-56
2023/04/29 02:06:37;;;;;;;0.40;0.40;;;;;;;12.11;99.93;96571.03;29395;239;63009;-56
2023/04/29 02:07:08;;;;;;;0.40;0.40;;;;;;;12.09;100.00;96573.25;29395;207;63005;-55
2023/04/29 02:07:41;;;;;;;0.40;0.40;;;;;;;12.10;100.00;96568.63;29395;207;63009;-55
2023/04/29 02:08:12;;;;;;;0.40;0.40;;;;;;;12.11;100.00;96564.78;29395;197;63005;-55
2023/04/29 02:08:43;;;;;;;0.40;0.40;;;;;;;12.10;99.89;96571.34;29394;333;64013;-56
2023/04/29 02:09:15;;;;;;;0.40;0.40;;;;;;;12.07;100.00;96570.84;29394;218;64009;-56
2023/04/29 02:09:46;;;;;;;0.40;0.40;;;;;;;12.06;100.00;96574.69;29395;239;63009;-55
2023/04/29 02:10:17;;;;;;;0.40;0.40;;;;;;;12.05;100.00;96575.78;29395;206;63004;-54
2023/04/29 02:10:56;;;;;;;0.40;0.40;;;;;;;12.03;100.00;96571.78;29395;237;63009;-54
2023/04/29 02:11:27;;;;;;;0.40;0.40;;;;;;;12.05;100.00;96566.84;29395;238;63004;-56
2023/04/29 02:12:03;;;;;;;0.50;0.50;;;;;;;12.13;100.00;96568.78;29395;273;63009;-56
2023/04/29 02:12:35;;;;;;;0.43;0.43;;;;;;;12.18;99.31;96570.56;29395;202;63004;-55
2023/04/29 02:13:06;;;;;;;0.40;0.40;;;;;;;12.21;98.71;96561.78;29395;199;63008;-56
2023/04/29 02:13:37;;;;;;;0.40;0.40;;;;;;;12.21;98.50;96576.19;29395;249;63005;-55
2023/04/29 02:14:11;;;;;;;0.43;0.43;;;;;;;12.20;98.70;96571.06;29394;203;64014;-55
2023/04/29 02:14:42;;;;;;;0.40;0.40;;;;;;;12.24;98.28;96570.13;29395;222;63016;-56
2023/04/29 02:15:14;;;;;;;0.40;0.40;;;;;;;12.26;97.66;96570.63;29395;320;63009;-55
2023/04/29 02:15:45;;;;;;;0.40;0.40;;;;;;;12.27;97.69;96568.72;29395;226;63005;-55
2023/04/29 02:16:16;;;;;;;0.40;0.40;;;;;;;12.30;97.67;96573.53;29395;209;63009;-56
2023/04/29 02:16:47;;;;;;;0.40;0.40;;;;;;;12.28;97.66;96576.56;29395;243;63016;-55
2023/04/29 02:17:19;;;;;;;0.40;0.40;;;;;;;12.26;97.45;96567.91;29395;205;63016;-55
2023/04/29 02:17:50;;;;;;;0.47;0.47;;;;;;;12.28;97.58;96581.19;29395;213;63004;-55
2023/04/29 02:18:21;;;;;;;0.40;0.40;;;;;;;12.28;97.19;96565.69;29395;222;63018;-55
2023/04/29 02:18:53;;;;;;;0.40;0.40;;;;;;;12.28;97.05;96571.13;29395;205;63004;-55
2023/04/29 02:19:25;;;;;;;0.40;0.40;;;;;;;12.26;97.07;96580.72;29394;224;64013;-55
2023/04/29 02:19:56;;;;;;;0.40;0.40;;;;;;;12.25;97.72;96570.94;29395;246;63004;-55
2023/04/29 02:20:27;;;;;;;0.50;0.50;;;;;;;12.22;97.90;96571.56;29394;252;64013;-56
2023/04/29 02:21:01;;;;;;;0.40;0.40;;;;;;;12.24;96.97;96577.50;29395;257;63005;-56
2023/04/29 02:21:34;;;;;;;0.40;0.40;;;;;;;12.24;96.82;96581.03;29395;225;63009;-55
2023/04/29 02:22:05;;;;;;;0.50;0.50;;;;;;;12.29;96.43;96574.66;29395;265;63005;-56
2023/04/29 02:22:36;;;;;;;0.40;0.40;;;;;;;12.28;96.20;96573.84;29395;215;63009;-55
2023/04/29 02:23:07;;;;;;;0.47;0.47;;;;;;;12.28;96.70;96575.75;29394;214;64009;-54
2023/04/29 02:23:39;;;;;;;0.50;0.50;;;;;;;12.29;96.48;96580.09;29395;220;63009;-55
2023/04/29 02:24:10;;;;;;;0.40;0.40;;;;;;;12.26;96.37;96572.53;29395;211;63005;-55
2023/04/29 02:24:42;;;;;;;0.50;0.50;;;;;;;12.25;96.47;96577.19;29395;236;63023;-56
2023/04/29 02:25:14;;;;;;;0.50;0.50;;;;;;;12.24;96.87;96574.78;29395;240;63004;-56
2023/04/29 02:25:45;;;;;;;0.50;0.50;;;;;;;12.22;96.25;96577.00;29395;220;63009;-54
2023/04/29 02:26:16;;;;;;;0.40;0.40;;;;;;;12.25;96.40;96576.38;29395;259;63004;-55
2023/04/29 02:26:48;;;;;;;0.40;0.40;;;;;;;12.25;95.73;96576.38;29395;248;63009;-55
2023/04/29 02:27:19;;;;;;;0.40;0.40;;;;;;;12.24;95.87;96572.06;29395;217;63004;-55
2023/04/29 02:27:50;;;;;;;0.40;0.40;;;;;;;12.24;96.04;96574.78;29394;209;64014;-55
2023/04/29 02:28:24;;;;;;;0.40;0.40;;;;;;;12.22;96.15;96574.28;29395;216;63011;-55
2023/04/29 02:28:56;;;;;;;0.40;0.40;;;;;;;12.24;96.07;96580.22;29395;208;63009;-55
2023/04/29 02:29:29;;;;;;;0.40;0.40;;;;;;;12.24;96.17;96564.69;29395;214;63018;-55
2023/04/29 02:30:01;;;;;;;0.50;0.50;;;;;;;12.25;96.10;96573.66;29395;197;63009;-56
2023/04/29 02:30:32;;;;;;;0.40;0.40;;;;;;;12.24;95.93;96577.50;29395;225;63005;-56
2023/04/29 02:31:04;;;;;;;0.40;0.40;;;;;;;12.22;96.04;96572.38;29395;205;63009;-56
2023/04/29 02:31:37;;;;;;;0.40;0.40;;;;;;;12.22;96.28;96577.00;29395;244;63005;-55
2023/04/29 02:32:08;;;;;;;0.40;0.40;;;;;;;12.18;96.20;96576.81;29395;222;63009;-56
2023/04/29 02:32:39;;;;;;;0.50;0.50;;;;;;;12.18;96.59;96573.28;29394;220;64009;-55
2023/04/29 02:33:10;;;;;;;0.40;0.40;;;;;;;12.17;96.47;96574.41;29395;229;63009;-55
2023/04/29 02:33:41;;;;;;;0.40;0.40;;;;;;;12.16;96.49;96572.78;29395;247;63004;-55
2023/04/29 02:34:13;;;;;;;0.40;0.40;;;;;;;12.13;96.61;96573.44;29395;230;63012;-55
2023/04/29 02:34:45;;;;;;;0.40;0.40;;;;;;;12.12;96.88;96571.84;29395;215;63004;-54
2023/04/29 02:35:16;;;;;;;0.40;0.40;;;;;;;12.08;96.60;96572.47;29395;243;63009;-55
2023/04/29 02:35:47;;;;;;;0.50;0.50;;;;;;;12.07;97.19;96572.75;29395;218;63005;-55
2023/04/29 02:36:19;;;;;;;0.40;0.40;;;;;;;12.06;97.37;96580.13;29395;239;63025;-55
2023/04/29 02:36:50;;;;;;;0.40;0.40;;;;;;;12.07;97.47;96575.47;29394;243;64009;-55
2023/04/29 02:37:21;;;;;;;0.40;0.40;;;;;;;12.10;96.65;96574.88;29395;199;63009;-54
2023/04/29 02:37:53;;;;;;;0.50;0.50;;;;;;;12.12;96.52;96574.56;29395;198;63005;-56
2023/04/29 02:38:25;;;;;;;0.50;0.50;;;;;;;12.11;96.26;96570.22;29395;264;63009;-55
2023/04/29 02:38:56;;;;;;;0.40;0.40;;;;;;;12.07;96.30;96570.84;29395;293;63005;-62
2023/04/29 02:39:28;;;;;;;0.40;0.40;;;;;;;12.04;96.22;96570.66;29395;228;63009;-55
2023/04/29 02:39:59;;;;;;;0.40;0.40;;;;;;;12.00;96.51;96580.53;29395;261;63004;-55
2023/04/29 02:40:30;;;;;;;0.47;0.47;;;;;;;11.96;96.77;96580.34;29395;228;63014;-59
2023/04/29 02:41:02;;;;;;;0.50;0.50;;;;;;;11.94;97.44;96577.16;29395;267;63004;-55
2023/04/29 02:41:33;;;;;;;0.40;0.40;;;;;;;11.98;97.55;96569.97;29395;198;63009;-57
2023/04/29 02:42:04;;;;;;;0.50;0.50;;;;;;;11.98;97.55;96578.13;29394;232;64008;-58
2023/04/29 02:42:36;;;;;;;0.50;0.50;;;;;;;11.96;97.51;96574.91;29395;244;63008;-58
2023/04/29 02:43:08;;;;;;;0.40;0.40;;;;;;;11.94;97.86;96571.72;29395;209;63005;-55
2023/04/29 02:43:39;;;;;;;0.40;0.40;;;;;;;11.93;97.91;96575.53;29395;234;63009;-56
2023/04/29 02:44:11;;;;;;;0.40;0.40;;;;;;;11.95;98.17;96573.31;29395;208;63005;-55
2023/04/29 02:44:42;;;;;;;0.40;0.40;;;;;;;11.98;97.74;96580.84;29395;197;63009;-55
2023/04/29 02:45:14;;;;;;;0.40;0.40;;;;;;;11.96;97.74;96572.19;29395;202;63005;-55